createdAt,value
2022-12-25T00:00:26.666Z,98392.44
2022-12-25T00:03:33.051Z,98396.28
2022-12-25T00:06:41.327Z,98403.53
2022-12-25T00:09:47.556Z,98409.13
2022-12-25T00:12:53.861Z,98418.19
2022-12-25T00:16:00.710Z,98426.25
2022-12-25T00:19:06.300Z,98428.16
2022-12-25T00:22:15.376Z,98431.75
2022-12-25T00:25:20.960Z,98422.38
2022-12-25T00:28:28.405Z,98428.56
2022-12-25T00:31:34.876Z,98443.28
2022-12-25T00:34:41.365Z,98426.06
2022-12-25T00:37:49.538Z,98446.28
2022-12-25T00:40:56.012Z,98449.53
2022-12-25T00:44:01.732Z,98460.00
2022-12-25T00:47:08.082Z,98461.53
2022-12-25T00:50:14.419Z,98457.88
2022-12-25T00:53:23.402Z,98475.25
2022-12-25T00:56:29.120Z,98475.19
2022-12-25T00:59:36.943Z,98474.97
2022-12-25T01:02:42.442Z,98492.97
2022-12-25T01:05:59.544Z,98489.38
2022-12-25T01:09:25.976Z,98486.53
2022-12-25T01:12:33.830Z,98490.63
2022-12-25T01:15:40.222Z,98498.25
2022-12-25T01:18:46.883Z,98501.81
2022-12-25T01:21:52.249Z,98506.19
2022-12-25T01:25:01.638Z,98513.94
2022-12-25T01:28:07.472Z,98512.53
2022-12-25T01:31:17.443Z,98513.31
2022-12-25T01:34:23.307Z,98500.97
2022-12-25T01:37:29.891Z,98514.88
2022-12-25T01:40:40.127Z,98526.53
2022-12-25T01:44:08.995Z,98529.94
2022-12-25T01:47:15.559Z,98531.75
2022-12-25T01:50:23.884Z,98531.91
2022-12-25T01:53:30.621Z,98530.13
2022-12-25T01:56:46.519Z,98538.53
2022-12-25T01:59:53.004Z,98537.19
2022-12-25T02:03:01.220Z,98535.97
2022-12-25T02:06:07.979Z,98539.22
2022-12-25T02:09:14.632Z,98532.16
2022-12-25T02:12:28.765Z,98479.78
2022-12-25T02:15:53.000Z,98541.28
2022-12-25T02:19:12.369Z,98547.44
2022-12-25T02:22:41.397Z,98545.88
2022-12-25T02:26:17.549Z,98543.19
2022-12-25T02:29:36.611Z,98538.72
2022-12-25T02:33:18.906Z,98550.41
2022-12-25T02:36:32.143Z,98550.31
2022-12-25T02:40:01.233Z,98547.56
2022-12-25T02:43:34.388Z,98541.63
2022-12-25T02:46:59.380Z,98540.94
2022-12-25T02:50:25.111Z,98551.66
2022-12-25T02:53:56.168Z,98548.28
2022-12-25T02:57:25.032Z,98549.00
2022-12-25T03:00:48.631Z,98538.47
2022-12-25T03:04:18.519Z,98540.16
2022-12-25T03:07:29.929Z,98548.06
2022-12-25T03:10:58.885Z,98542.94
2022-12-25T03:14:22.658Z,98545.75
2022-12-25T03:17:30.574Z,98551.81
2022-12-25T03:20:57.009Z,98545.75
2022-12-25T03:24:17.522Z,98548.91
2022-12-25T03:27:23.764Z,98556.50
2022-12-25T03:30:56.792Z,98549.00
2022-12-25T03:34:45.421Z,98556.63
2022-12-25T03:38:40.187Z,98547.66
2022-12-25T03:42:09.308Z,98565.25
2022-12-25T03:45:44.724Z,98569.28
2022-12-25T03:49:18.866Z,98572.03
2022-12-25T03:52:41.878Z,98573.56
2022-12-25T03:56:09.957Z,98576.91
2022-12-25T03:59:31.749Z,98583.00
2022-12-25T04:02:55.721Z,98580.78
2022-12-25T04:06:17.263Z,98581.38
2022-12-25T04:09:39.756Z,98585.97
2022-12-25T04:13:04.014Z,98592.09
2022-12-25T04:16:27.173Z,98610.41
2022-12-25T04:19:48.437Z,98604.06
2022-12-25T04:23:10.576Z,98612.47
2022-12-25T04:26:46.491Z,98612.31
2022-12-25T04:30:10.152Z,98620.03
2022-12-25T04:33:30.987Z,98620.16
2022-12-25T04:36:37.275Z,98624.63
2022-12-25T04:39:42.701Z,98619.53
2022-12-25T04:42:49.048Z,98620.44
2022-12-25T04:46:00.647Z,98612.03
2022-12-25T04:49:06.950Z,98612.88
2022-12-25T04:52:12.472Z,98611.91
2022-12-25T04:55:18.754Z,98617.03
2022-12-25T04:58:24.178Z,98611.03
2022-12-25T05:01:33.297Z,98617.25
2022-12-25T05:04:38.722Z,98616.28
2022-12-25T05:07:44.927Z,98613.56
2022-12-25T05:10:50.970Z,98619.78
2022-12-25T05:13:57.454Z,98623.34
2022-12-25T05:17:05.708Z,98624.13
2022-12-25T05:20:12.248Z,98626.22
2022-12-25T05:23:17.612Z,98625.59
2022-12-25T05:26:27.253Z,98636.91
2022-12-25T05:29:32.579Z,98624.59
2022-12-25T05:32:41.716Z,98637.75
2022-12-25T05:35:47.096Z,98641.53
2022-12-25T05:38:54.315Z,98639.13
2022-12-25T05:41:59.785Z,98647.56
2022-12-25T05:45:06.503Z,98649.53
2022-12-25T05:48:15.377Z,98656.72
2022-12-25T05:51:21.679Z,98655.16
2022-12-25T05:54:27.098Z,98664.03
2022-12-25T05:57:34.445Z,98657.25
2022-12-25T06:00:40.935Z,98655.78
2022-12-25T06:03:50.433Z,98653.34
2022-12-25T06:06:56.851Z,98663.59
2022-12-25T06:10:03.363Z,98669.09
2022-12-25T06:13:08.927Z,98670.75
2022-12-25T06:16:15.957Z,98674.34
2022-12-25T06:19:24.724Z,98671.16
2022-12-25T06:22:32.446Z,98681.91
2022-12-25T06:25:37.931Z,98693.63
2022-12-25T06:28:45.053Z,98698.88
2022-12-25T06:31:50.627Z,98697.06
2022-12-25T06:34:59.884Z,98704.78
2022-12-25T06:38:05.293Z,98697.22
2022-12-25T06:41:14.890Z,98708.47
2022-12-25T06:44:20.496Z,98715.59
2022-12-25T06:47:27.106Z,98709.69
2022-12-25T06:50:37.436Z,98717.66
2022-12-25T06:53:43.664Z,98731.78
2022-12-25T06:56:49.980Z,98746.00
2022-12-25T06:59:56.476Z,98741.16
2022-12-25T07:03:02.447Z,98746.59
2022-12-25T07:06:12.531Z,98757.09
2022-12-25T07:09:18.129Z,98769.38
2022-12-25T07:12:27.657Z,98774.69
2022-12-25T07:15:33.050Z,98786.94
2022-12-25T07:18:39.496Z,98797.47
2022-12-25T07:21:47.689Z,98797.59
2022-12-25T07:24:53.909Z,98801.91
2022-12-25T07:27:59.492Z,98802.78
2022-12-25T07:31:07.790Z,98802.13
2022-12-25T07:34:13.379Z,98804.72
2022-12-25T07:37:22.386Z,98811.84
2022-12-25T07:40:27.851Z,98817.31
2022-12-25T07:43:34.102Z,98815.69
2022-12-25T07:46:39.509Z,98814.00
2022-12-25T07:49:45.765Z,98807.94
2022-12-25T07:52:53.904Z,98799.25
2022-12-25T07:56:02.835Z,98803.56
2022-12-25T07:59:08.184Z,98798.22
2022-12-25T08:02:14.710Z,98796.44
2022-12-25T08:05:20.740Z,98804.03
2022-12-25T08:08:29.990Z,98791.00
2022-12-25T08:11:36.521Z,98815.69
2022-12-25T08:14:42.836Z,98806.69
2022-12-25T08:17:48.302Z,98808.97
2022-12-25T08:20:54.557Z,98810.22
2022-12-25T08:24:03.323Z,98814.09
2022-12-25T08:27:09.551Z,98804.94
2022-12-25T08:30:15.779Z,98794.09
2022-12-25T08:33:22.118Z,98790.31
2022-12-25T08:36:28.596Z,98779.53
2022-12-25T08:39:37.668Z,98795.63
2022-12-25T08:42:43.073Z,98791.09
2022-12-25T08:45:50.556Z,98780.31
2022-12-25T08:48:56.912Z,98798.34
2022-12-25T08:52:03.164Z,98815.81
2022-12-25T08:55:12.335Z,98819.97
2022-12-25T08:58:19.265Z,98826.97
2022-12-25T09:01:24.867Z,98827.84
2022-12-25T09:04:31.817Z,98825.25
2022-12-25T09:07:37.180Z,98834.91
2022-12-25T09:10:46.457Z,98832.31
2022-12-25T09:13:52.642Z,98834.78
2022-12-25T09:16:58.893Z,98836.25
2022-12-25T09:20:04.339Z,98837.94
2022-12-25T09:23:14.097Z,98836.25
2022-12-25T09:26:23.283Z,98844.19
2022-12-25T09:29:29.559Z,98841.59
2022-12-25T09:32:35.854Z,98838.19
2022-12-25T09:35:42.171Z,98838.06
2022-12-25T09:38:47.672Z,98819.13
2022-12-25T09:42:05.060Z,98841.13
2022-12-25T09:45:21.043Z,98847.66
2022-12-25T09:48:31.332Z,98852.38
2022-12-25T09:51:43.588Z,98854.44
2022-12-25T09:55:01.082Z,98858.59
2022-12-25T09:58:16.027Z,98858.28
2022-12-25T10:01:42.220Z,98852.69
2022-12-25T10:05:14.972Z,98844.38
2022-12-25T10:09:10.090Z,98850.06
2022-12-25T10:12:41.743Z,98847.84
2022-12-25T10:16:10.770Z,98845.75
2022-12-25T10:19:37.416Z,98840.00
2022-12-25T10:22:49.893Z,98836.13
2022-12-25T10:25:57.434Z,98833.28
2022-12-25T10:29:16.516Z,98837.41
2022-12-25T10:32:25.015Z,98831.91
2022-12-25T10:35:33.823Z,98820.34
2022-12-25T10:38:39.660Z,98825.44
2022-12-25T10:42:11.468Z,98813.09
2022-12-25T10:45:17.554Z,98815.50
2022-12-25T10:48:33.007Z,98815.22
2022-12-25T10:51:41.787Z,98817.78
2022-12-25T10:54:48.100Z,98816.78
2022-12-25T10:57:54.499Z,98807.25
2022-12-25T11:01:08.862Z,98813.03
2022-12-25T11:04:23.925Z,98796.66
2022-12-25T11:07:30.919Z,98810.19
2022-12-25T11:10:42.380Z,98807.56
2022-12-25T11:13:55.691Z,98796.03
2022-12-25T11:17:12.327Z,98794.16
2022-12-25T11:20:24.732Z,98792.19
2022-12-25T11:23:34.431Z,98786.03
2022-12-25T11:26:52.218Z,98779.34
2022-12-25T11:30:04.808Z,98784.59
2022-12-25T11:33:17.612Z,98782.16
2022-12-25T11:36:35.882Z,98789.00
2022-12-25T11:39:45.424Z,98793.09
2022-12-25T11:43:04.118Z,98794.66
2022-12-25T11:46:24.091Z,98787.56
2022-12-25T11:49:30.665Z,98774.31
2022-12-25T11:52:47.445Z,98773.22
2022-12-25T11:55:59.473Z,98776.47
2022-12-25T11:59:19.568Z,98783.91
2022-12-25T12:02:36.645Z,98779.28
2022-12-25T12:05:52.658Z,98776.50
2022-12-25T12:09:33.289Z,98764.16
2022-12-25T12:12:54.566Z,98770.31
2022-12-25T12:16:00.813Z,98766.91
2022-12-25T12:19:17.348Z,98763.38
2022-12-25T12:22:27.241Z,98760.69
2022-12-25T12:25:44.148Z,98761.38
2022-12-25T12:28:54.197Z,98737.63
2022-12-25T12:32:06.990Z,98763.09
2022-12-25T12:35:21.885Z,98760.47
2022-12-25T12:38:29.042Z,98753.22
2022-12-25T12:41:51.199Z,98759.22
2022-12-25T12:45:09.755Z,98761.69
2022-12-25T12:48:20.096Z,98753.50
2022-12-25T12:51:40.238Z,98749.81
2022-12-25T12:55:03.141Z,98747.03
2022-12-25T12:58:33.940Z,98753.97
2022-12-25T13:01:57.668Z,98758.13
2022-12-25T13:05:11.239Z,98761.53
2022-12-25T13:08:38.215Z,98752.69
2022-12-25T13:11:49.824Z,98757.34
2022-12-25T13:14:58.357Z,98754.91
2022-12-25T13:18:09.782Z,98756.72
2022-12-25T13:21:25.327Z,98763.84
2022-12-25T13:24:35.131Z,98779.72
2022-12-25T13:27:40.589Z,98770.09
2022-12-25T13:30:49.987Z,98757.06
2022-12-25T13:34:02.859Z,98762.47
2022-12-25T13:37:13.387Z,98756.44
2022-12-25T13:40:31.327Z,98767.72
2022-12-25T13:43:35.051Z,98759.06
2022-12-25T13:46:43.463Z,98774.81
2022-12-25T13:49:51.363Z,98766.00
2022-12-25T13:52:59.824Z,98592.69
2022-12-25T13:56:06.488Z,98762.47
2022-12-25T13:59:21.896Z,98756.44
2022-12-25T14:02:38.423Z,98741.94
2022-12-25T14:05:43.971Z,98738.63
2022-12-25T14:08:52.803Z,98752.59
2022-12-25T14:11:58.575Z,98752.59
2022-12-25T14:15:07.885Z,98755.38
2022-12-25T14:18:22.430Z,98733.56
2022-12-25T14:21:35.908Z,98770.50
2022-12-25T14:24:43.765Z,98764.53
2022-12-25T14:27:55.275Z,98751.81
2022-12-25T14:31:02.504Z,98767.41
2022-12-25T14:34:22.146Z,98752.66
2022-12-25T14:37:32.718Z,98746.72
2022-12-25T14:40:39.087Z,98726.22
2022-12-25T14:43:56.189Z,98718.25
2022-12-25T14:47:20.900Z,98718.66
2022-12-25T14:50:39.950Z,98725.81
2022-12-25T14:53:54.822Z,98744.38
2022-12-25T14:57:00.482Z,98750.84
2022-12-25T15:00:23.666Z,98754.53
2022-12-25T15:03:34.221Z,98761.56
2022-12-25T15:06:55.210Z,98760.84
2022-12-25T15:10:36.487Z,98766.38
2022-12-25T15:13:29.190Z,98766.69
2022-12-25T15:16:44.851Z,98768.81
2022-12-25T15:19:51.380Z,98775.16
2022-12-25T15:23:18.937Z,98765.94
2022-12-25T15:26:25.815Z,98754.69
2022-12-25T15:30:09.218Z,98743.59
2022-12-25T15:32:57.761Z,98733.38
2022-12-25T15:36:03.230Z,98739.63
2022-12-25T15:39:12.277Z,98728.28
2022-12-25T15:42:21.074Z,98722.19
2022-12-25T15:45:32.465Z,98715.19
2022-12-25T15:48:37.956Z,98697.88
2022-12-25T15:51:46.131Z,98702.25
2022-12-25T15:54:54.438Z,98701.63
2022-12-25T15:58:00.968Z,98714.88
2022-12-25T16:01:06.803Z,98709.78
2022-12-25T16:04:12.996Z,98703.81
2022-12-25T16:07:23.298Z,98699.56
2022-12-25T16:10:38.407Z,98692.00
2022-12-25T16:13:44.512Z,98693.22
2022-12-25T16:16:50.855Z,98698.88
2022-12-25T16:19:56.501Z,98707.75
2022-12-25T16:23:02.703Z,98696.53
2022-12-25T16:26:10.987Z,98707.88
2022-12-25T16:29:17.514Z,98692.34
2022-12-25T16:32:23.178Z,98699.34
2022-12-25T16:35:29.497Z,98694.13
2022-12-25T16:38:34.908Z,98696.78
2022-12-25T16:41:44.150Z,98686.75
2022-12-25T16:44:49.614Z,98702.22
2022-12-25T16:47:55.868Z,98691.84
2022-12-25T16:51:01.290Z,98691.00
2022-12-25T16:54:08.580Z,98689.38
2022-12-25T16:57:17.118Z,98687.53
2022-12-25T17:00:24.686Z,98689.22
2022-12-25T17:03:30.896Z,98685.00
2022-12-25T17:06:37.297Z,98687.66
2022-12-25T17:09:44.490Z,98673.66
2022-12-25T17:12:53.664Z,98671.97
2022-12-25T17:15:59.355Z,98676.34
2022-12-25T17:19:12.118Z,98665.06
2022-12-25T17:22:17.575Z,98656.28
2022-12-25T17:25:23.890Z,98626.72
2022-12-25T17:28:32.328Z,98632.47
2022-12-25T17:31:38.678Z,98624.50
2022-12-25T17:34:44.325Z,98630.41
2022-12-25T17:37:50.609Z,98629.41
2022-12-25T17:40:59.544Z,98608.16
2022-12-25T17:44:08.819Z,98636.13
2022-12-25T17:47:14.226Z,98639.88
2022-12-25T17:50:20.616Z,98631.41
2022-12-25T17:53:26.027Z,98645.69
2022-12-25T17:56:33.197Z,98642.44
2022-12-25T17:59:41.434Z,98623.47
2022-12-25T18:02:48.027Z,98624.53
2022-12-25T18:05:53.586Z,98620.34
2022-12-25T18:09:01.901Z,98623.88
2022-12-25T18:12:08.399Z,98617.81
2022-12-25T18:15:17.630Z,98621.34
2022-12-25T18:18:23.064Z,98629.28
2022-12-25T18:21:30.510Z,98625.84
2022-12-25T18:24:36.150Z,98639.84
2022-12-25T18:27:43.486Z,98638.16
2022-12-25T18:30:53.086Z,98601.47
2022-12-25T18:34:25.430Z,98600.13
2022-12-25T18:41:31.141Z,98631.09
2022-12-25T18:44:39.248Z,98629.28
2022-12-25T18:47:49.718Z,98605.88
2022-12-25T18:51:02.512Z,98612.38
2022-12-25T18:54:11.223Z,98597.59
2022-12-25T18:57:18.131Z,98597.69
2022-12-25T19:00:24.662Z,98597.91
2022-12-25T19:03:33.141Z,98587.13
2022-12-25T19:06:39.680Z,98596.59
2022-12-25T19:09:45.280Z,98599.38
2022-12-25T19:12:51.780Z,98602.75
2022-12-25T19:16:02.223Z,98600.78
2022-12-25T19:19:12.949Z,98598.16
2022-12-25T19:22:18.565Z,98592.03
2022-12-25T19:25:24.794Z,98588.56
2022-12-25T19:28:30.393Z,98581.72
2022-12-25T19:31:38.330Z,98580.09
2022-12-25T19:34:46.580Z,98579.22
2022-12-25T19:37:52.982Z,98572.06
2022-12-25T19:41:04.578Z,98566.66
2022-12-25T19:44:11.385Z,98566.44
2022-12-25T19:47:16.859Z,98576.69
2022-12-25T19:50:28.674Z,98582.41
2022-12-25T19:53:34.629Z,98581.94
2022-12-25T19:56:41.223Z,98563.97
2022-12-25T19:59:46.612Z,98557.44
2022-12-25T20:02:53.092Z,98548.81
2022-12-25T20:06:01.420Z,98538.50
2022-12-25T20:09:11.153Z,98530.97
2022-12-25T20:12:16.738Z,98543.47
2022-12-25T20:15:23.657Z,98526.38
2022-12-25T20:18:29.124Z,98525.88
2022-12-25T20:21:38.545Z,98536.69
2022-12-25T20:24:43.955Z,98536.84
2022-12-25T20:27:50.853Z,98519.47
2022-12-25T20:30:59.590Z,98519.31
2022-12-25T20:34:11.090Z,98521.66
2022-12-25T20:37:19.524Z,98503.34
2022-12-25T20:40:25.884Z,98508.94
2022-12-25T20:43:32.373Z,98484.00
2022-12-25T20:46:38.720Z,98511.03
2022-12-25T20:49:44.290Z,98501.44
2022-12-25T20:52:56.972Z,98510.94
2022-12-25T20:56:02.688Z,98495.25
2022-12-25T20:59:09.008Z,98477.22
2022-12-25T21:02:34.620Z,98491.41
2022-12-25T21:05:49.970Z,98488.16
2022-12-25T21:08:58.396Z,98493.47
2022-12-25T21:12:04.688Z,98486.44
2022-12-25T21:15:15.324Z,98463.84
2022-12-25T21:18:27.289Z,98440.47
2022-12-25T21:21:32.714Z,98440.31
2022-12-25T21:24:42.004Z,98453.44
2022-12-25T21:27:47.409Z,98451.78
2022-12-25T21:30:53.932Z,98459.53
2022-12-25T21:33:58.169Z,98469.84
2022-12-25T21:37:04.670Z,98463.72
2022-12-25T21:40:16.616Z,98463.22
2022-12-25T21:43:22.964Z,98463.09
2022-12-25T21:46:33.250Z,98442.94
2022-12-25T21:49:54.967Z,98436.75
2022-12-25T21:53:01.105Z,98442.00
2022-12-25T21:56:10.845Z,98447.41
2022-12-25T21:59:20.544Z,98376.38
2022-12-25T22:02:27.339Z,98422.75
2022-12-25T22:05:45.879Z,98429.19
2022-12-25T22:08:52.133Z,98434.84
2022-12-25T22:12:16.600Z,98451.75
2022-12-25T22:15:23.225Z,98449.41
2022-12-25T22:18:44.488Z,98433.72
2022-12-25T22:21:50.704Z,98426.78
2022-12-25T22:25:01.301Z,98433.88
2022-12-25T22:28:10.535Z,98426.94
2022-12-25T22:31:16.004Z,98409.59
2022-12-25T22:34:22.289Z,98417.47
2022-12-25T22:37:27.779Z,98411.56
2022-12-25T22:40:34.611Z,98411.63
2022-12-25T22:44:16.042Z,98394.59
2022-12-25T22:47:09.142Z,98368.38
2022-12-25T22:50:16.546Z,98393.16
2022-12-25T22:53:23.503Z,98391.63
2022-12-25T22:56:28.916Z,98386.53
2022-12-25T22:59:37.972Z,98391.91
2022-12-25T23:02:44.430Z,98400.50
2022-12-25T23:05:57.728Z,98395.91
2022-12-25T23:09:04.542Z,98384.56
2022-12-25T23:12:31.071Z,98389.66
2022-12-25T23:15:36.724Z,98389.38
2022-12-25T23:18:58.867Z,98403.97
2022-12-25T23:22:20.412Z,98407.88
2022-12-25T23:25:42.417Z,98403.66
2022-12-25T23:28:59.973Z,98403.66
2022-12-25T23:32:13.679Z,98398.56
2022-12-25T23:35:19.256Z,98385.69
2022-12-25T23:38:25.576Z,98383.22
2022-12-25T23:41:31.116Z,98377.22
2022-12-25T23:44:38.438Z,98367.03
2022-12-25T23:47:46.617Z,98350.84
2022-12-25T23:50:52.890Z,98346.88
2022-12-25T23:53:58.327Z,98338.53
2022-12-25T23:57:04.795Z,98323.44
